Time;durP1;ratioP1;P1;durP2;ratioP2;P2;SDS_P1;SDS_P2;PMS_P1;PMS_P2;Temp;Humidity;BMP_temperature;BMP_pressure;BME280_temperature;BME280_humidity;BME280_pressure;Samples;Min_cycle;Max_cycle;Signal;HPM_P1;HPM_P2
2021/06/20 00:01:13;;;;;;;5.00;1.77;;;;;;;;;;5053937;28;20387;-77
2021/06/20 00:03:39;;;;;;;4.63;2.00;;;;;;;;;;5054252;28;20037;-77
2021/06/20 00:06:17;;;;;;;8.05;2.55;;;;;;;;;;5045254;28;20040;-77
2021/06/20 00:08:43;;;;;;;5.13;2.00;;;;;;;;;;5036761;28;20092;-77
2021/06/20 00:11:08;;;;;;;4.60;1.90;;;;;;;;;;5040395;28;20043;-77
2021/06/20 00:13:34;;;;;;;10.77;2.47;;;;;;;;;;5042198;28;20037;-77
2021/06/20 00:15:59;;;;;;;7.75;3.97;;;;;;;;;;5053794;28;20053;-77
2021/06/20 00:18:24;;;;;;;10.32;2.20;;;;;;;;;;5053858;28;20621;-77
2021/06/20 00:20:50;;;;;;;5.93;2.08;;;;;;;;;;5052943;28;20037;-77
2021/06/20 00:23:16;;;;;;;6.75;2.40;;;;;;;;;;5052070;28;20112;-77
2021/06/20 00:25:41;;;;;;;9.25;2.15;;;;;;;;;;5053501;28;20083;-77
2021/06/20 00:28:07;;;;;;;9.18;2.25;;;;;;;;;;5052266;28;20039;-77
2021/06/20 00:30:36;;;;;;;5.47;2.30;;;;;;;;;;5053689;28;20078;-76
2021/06/20 00:33:02;;;;;;;4.32;2.00;;;;;;;;;;5051386;28;20377;-76
2021/06/20 00:35:27;;;;;;;3.65;2.15;;;;;;;;;;5046184;28;20036;-77
2021/06/20 00:37:54;;;;;;;6.65;2.40;;;;;;;;;;5045172;28;20467;-77
2021/06/20 00:40:21;;;;;;;6.90;2.08;;;;;;;;;;5049007;28;20029;-77
2021/06/20 00:42:47;;;;;;;6.50;1.90;;;;;;;;;;5044942;28;20394;-76
2021/06/20 00:45:17;;;;;;;3.00;2.05;;;;;;;;;;5041660;28;20037;-77
2021/06/20 00:47:43;;;;;;;6.30;2.10;;;;;;;;;;5032107;28;20029;-77
2021/06/20 00:50:12;;;;;;;4.47;2.28;;;;;;;;;;5033289;28;20041;-77
2021/06/20 00:52:38;;;;;;;5.32;2.28;;;;;;;;;;5038393;28;20033;-77
2021/06/20 00:55:05;;;;;;;6.95;2.50;;;;;;;;;;5052828;28;20025;-77
2021/06/20 00:57:30;;;;;;;6.50;2.70;;;;;;;;;;5051734;28;20040;-77
2021/06/20 00:59:58;;;;;;;8.07;3.03;;;;;;;;;;5052187;28;20063;-77
2021/06/20 01:02:24;;;;;;;5.47;2.22;;;;;;;;;;5052909;28;20033;-77
2021/06/20 01:04:50;;;;;;;4.07;2.60;;;;;;;;;;5053008;28;20120;-76
2021/06/20 01:07:23;;;;;;;15.13;2.60;;;;;;;;;;5053063;28;20569;-77
2021/06/20 01:09:49;;;;;;;16.65;2.80;;;;;;;;;;5042325;28;20120;-76
2021/06/20 01:12:17;;;;;;;6.95;2.67;;;;;;;;;;5042425;28;20044;-76
2021/06/20 01:14:43;;;;;;;8.30;2.83;;;;;;;;;;5053120;28;20426;-76
2021/06/20 01:17:10;;;;;;;6.68;2.63;;;;;;;;;;5052596;28;20055;-76
2021/06/20 01:19:36;;;;;;;5.10;2.70;;;;;;;;;;5042002;28;20056;-76
2021/06/20 01:22:19;;;;;;;9.40;2.78;;;;;;;;;;5041353;28;20038;-77
2021/06/20 01:24:51;;;;;;;6.28;2.90;;;;;;;;;;5032607;28;20494;-76
2021/06/20 01:27:17;;;;;;;4.82;2.72;;;;;;;;;;5031631;28;20124;-77
2021/06/20 01:29:47;;;;;;;6.97;2.80;;;;;;;;;;5033175;28;20076;-77
2021/06/20 01:32:14;;;;;;;7.95;2.85;;;;;;;;;;5033791;28;20037;-77
2021/06/20 01:34:39;;;;;;;7.63;2.95;;;;;;;;;;5033698;28;20045;-77
2021/06/20 01:37:10;;;;;;;7.93;3.08;;;;;;;;;;5033769;28;20055;-77
2021/06/20 01:39:37;;;;;;;9.68;3.08;;;;;;;;;;5040491;28;20463;-77
2021/06/20 01:42:03;;;;;;;7.63;2.97;;;;;;;;;;5042120;28;20017;-77
2021/06/20 01:44:28;;;;;;;5.43;2.60;;;;;;;;;;5036305;28;20131;-77
2021/06/20 01:46:54;;;;;;;5.18;2.60;;;;;;;;;;5046672;28;20123;-77
2021/06/20 01:49:19;;;;;;;5.03;2.95;;;;;;;;;;5044462;28;20033;-77
2021/06/20 01:51:45;;;;;;;7.90;3.38;;;;;;;;;;5034909;28;20141;-77
2021/06/20 01:54:11;;;;;;;12.77;3.45;;;;;;;;;;5044991;28;20059;-77
2021/06/20 01:56:37;;;;;;;8.57;3.08;;;;;;;;;;5055243;28;20024;-77
2021/06/20 01:59:02;;;;;;;7.43;3.15;;;;;;;;;;5056651;28;20548;-77
2021/06/20 02:01:30;;;;;;;9.18;3.45;;;;;;;;;;5056524;28;20498;-77
2021/06/20 02:03:56;;;;;;;7.00;4.00;;;;;;;;;;5056064;28;20039;-77
2021/06/20 02:06:21;;;;;;;7.88;3.53;;;;;;;;;;5056014;28;20398;-76
2021/06/20 02:08:47;;;;;;;13.88;3.92;;;;;;;;;;5056245;28;20033;-76
2021/06/20 02:11:12;;;;;;;8.57;3.63;;;;;;;;;;5046495;28;20064;-77
2021/06/20 02:13:38;;;;;;;8.07;3.03;;;;;;;;;;5041139;28;20043;-77
2021/06/20 02:16:05;;;;;;;13.75;3.88;;;;;;;;;;5036793;28;20044;-77
2021/06/20 02:18:31;;;;;;;19.65;3.92;;;;;;;;;;5036344;28;20037;-77
2021/06/20 02:20:57;;;;;;;30.52;5.05;;;;;;;;;;5035220;28;20068;-78
2021/06/20 02:23:23;;;;;;;30.38;3.75;;;;;;;;;;5042168;28;20045;-78
2021/06/20 02:25:48;;;;;;;24.50;3.85;;;;;;;;;;5064519;28;20083;-78
2021/06/20 02:28:14;;;;;;;15.35;3.53;;;;;;;;;;5049698;28;20045;-79
2021/06/20 02:30:40;;;;;;;10.63;2.45;;;;;;;;;;5053458;28;20037;-78
2021/06/20 02:33:05;;;;;;;11.38;2.67;;;;;;;;;;5052806;28;20092;-78
2021/06/20 02:35:31;;;;;;;16.75;2.60;;;;;;;;;;5072640;28;20025;-79
2021/06/20 02:37:56;;;;;;;15.15;3.53;;;;;;;;;;5070217;28;20043;-78
2021/06/20 02:40:22;;;;;;;7.40;2.28;;;;;;;;;;5067243;28;20029;-78
2021/06/20 02:42:48;;;;;;;7.25;2.22;;;;;;;;;;5063918;28;20032;-78
2021/06/20 02:45:17;;;;;;;7.63;2.50;;;;;;;;;;5053133;28;20049;-77
2021/06/20 02:47:42;;;;;;;8.75;2.05;;;;;;;;;;5055775;28;20029;-78
2021/06/20 02:50:08;;;;;;;16.90;3.10;;;;;;;;;;5058855;28;20044;-78
2021/06/20 02:52:34;;;;;;;14.15;3.08;;;;;;;;;;5050816;28;20037;-79
2021/06/20 02:55:01;;;;;;;8.13;2.40;;;;;;;;;;5053042;28;20056;-79
2021/06/20 02:57:28;;;;;;;7.43;2.63;;;;;;;;;;5063426;28;20056;-79
2021/06/20 02:59:55;;;;;;;12.48;3.00;;;;;;;;;;5071063;28;20081;-78
2021/06/20 03:02:21;;;;;;;9.07;2.65;;;;;;;;;;5070767;28;20029;-78
2021/06/20 03:04:48;;;;;;;10.50;2.47;;;;;;;;;;5069243;28;20203;-78
2021/06/20 03:07:14;;;;;;;8.98;2.78;;;;;;;;;;5065173;28;20040;-78
2021/06/20 03:09:39;;;;;;;5.60;2.22;;;;;;;;;;5066016;28;20463;-78
2021/06/20 03:12:07;;;;;;;8.38;2.30;;;;;;;;;;5067839;28;20104;-78
2021/06/20 03:14:34;;;;;;;12.25;3.08;;;;;;;;;;5058029;28;20063;-79
2021/06/20 03:17:03;;;;;;;8.05;2.67;;;;;;;;;;5066508;28;20025;-78
2021/06/20 03:19:30;;;;;;;13.30;3.67;;;;;;;;;;5067567;28;20037;-78
2021/06/20 03:22:00;;;;;;;14.13;3.97;;;;;;;;;;5064019;28;20033;-79
2021/06/20 03:24:30;;;;;;;13.95;4.80;;;;;;;;;;5055158;28;20094;-79
2021/06/20 03:26:56;;;;;;;13.60;4.05;;;;;;;;;;5047036;28;20109;-78
2021/06/20 03:29:22;;;;;;;12.60;2.80;;;;;;;;;;5048515;28;20045;-78
2021/06/20 03:31:48;;;;;;;11.75;3.33;;;;;;;;;;5052343;28;20034;-78
2021/06/20 03:34:13;;;;;;;14.93;4.15;;;;;;;;;;5052668;28;20073;-79
2021/06/20 03:36:39;;;;;;;20.40;3.90;;;;;;;;;;5043170;28;20038;-79
2021/06/20 03:39:05;;;;;;;15.32;4.65;;;;;;;;;;5048074;28;20044;-78
2021/06/20 03:41:30;;;;;;;17.38;3.90;;;;;;;;;;5064747;28;20041;-78
2021/06/20 03:43:56;;;;;;;16.63;4.57;;;;;;;;;;5065333;28;20056;-79
2021/06/20 03:46:21;;;;;;;18.92;4.05;;;;;;;;;;5054259;28;20061;-79
2021/06/20 03:48:47;;;;;;;18.60;4.00;;;;;;;;;;5060036;28;20526;-80
2021/06/20 03:51:13;;;;;;;15.25;5.05;;;;;;;;;;5060565;28;20037;-80
2021/06/20 03:53:38;;;;;;;14.75;4.13;;;;;;;;;;5052406;28;20402;-79
2021/06/20 03:56:04;;;;;;;14.55;3.72;;;;;;;;;;5065123;28;20036;-80
2021/06/20 03:58:29;;;;;;;10.75;3.45;;;;;;;;;;5064071;28;20044;-79
2021/06/20 04:00:55;;;;;;;28.52;5.95;;;;;;;;;;5055101;28;20580;-80
2021/06/20 04:03:20;;;;;;;24.75;6.18;;;;;;;;;;5058469;28;20091;-80
2021/06/20 04:05:46;;;;;;;18.23;5.10;;;;;;;;;;5067957;28;20506;-80
2021/06/20 04:08:11;;;;;;;11.60;4.60;;;;;;;;;;5072128;28;20033;-80
2021/06/20 04:10:37;;;;;;;19.05;5.45;;;;;;;;;;5071341;28;20033;-79
2021/06/20 04:13:03;;;;;;;17.58;4.72;;;;;;;;;;5071329;28;20037;-78
2021/06/20 04:15:28;;;;;;;18.83;4.70;;;;;;;;;;5070820;28;20093;-78
2021/06/20 04:17:54;;;;;;;21.25;4.53;;;;;;;;;;5062422;28;20414;-78
2021/06/20 04:20:20;;;;;;;16.33;4.20;;;;;;;;;;5046498;28;20530;-78
2021/06/20 04:22:45;;;;;;;19.25;5.28;;;;;;;;;;5049997;28;20037;-78
2021/06/20 04:25:15;;;;;;;15.30;4.18;;;;;;;;;;5057413;28;20040;-78
2021/06/20 04:27:42;;;;;;;15.45;4.22;;;;;;;;;;5043648;28;20057;-78
2021/06/20 04:30:12;;;;;;;9.73;3.88;;;;;;;;;;5060863;28;20063;-78
2021/06/20 04:32:38;;;;;;;15.45;4.75;;;;;;;;;;5064979;28;20037;-79
2021/06/20 04:35:04;;;;;;;11.32;4.22;;;;;;;;;;5059938;28;20025;-80
2021/06/20 04:37:30;;;;;;;10.68;3.65;;;;;;;;;;5043994;28;20042;-79
2021/06/20 04:39:55;;;;;;;11.68;3.60;;;;;;;;;;5047354;28;20076;-79
2021/06/20 04:42:23;;;;;;;15.63;3.97;;;;;;;;;;5062893;28;20059;-79
2021/06/20 04:44:48;;;;;;;12.10;4.00;;;;;;;;;;5063499;28;20076;-80
2021/06/20 04:47:16;;;;;;;12.45;4.43;;;;;;;;;;5058354;28;20052;-79
2021/06/20 04:49:42;;;;;;;20.00;4.22;;;;;;;;;;5049146;28;20049;-78
2021/06/20 04:52:09;;;;;;;16.35;4.95;;;;;;;;;;5063877;28;20041;-79
2021/06/20 04:54:36;;;;;;;15.40;4.40;;;;;;;;;;5070887;28;20036;-78
2021/06/20 04:57:03;;;;;;;18.05;3.95;;;;;;;;;;5062127;28;20491;-78
2021/06/20 04:59:29;;;;;;;15.48;4.38;;;;;;;;;;5058022;28;20052;-78
2021/06/20 05:01:54;;;;;;;16.85;3.83;;;;;;;;;;5051101;28;20034;-78
2021/06/20 05:04:20;;;;;;;18.83;3.95;;;;;;;;;;5051595;28;20097;-78
2021/06/20 05:06:45;;;;;;;19.35;4.20;;;;;;;;;;5052029;28;20025;-78
2021/06/20 05:09:11;;;;;;;21.77;4.10;;;;;;;;;;5049315;28;20049;-78
2021/06/20 05:11:36;;;;;;;14.15;4.03;;;;;;;;;;5068291;28;20044;-78
2021/06/20 05:14:02;;;;;;;10.45;3.50;;;;;;;;;;5069838;28;20100;-82
2021/06/20 05:16:27;;;;;;;11.90;4.63;;;;;;;;;;5070015;28;20032;-78
2021/06/20 05:18:53;;;;;;;10.80;3.88;;;;;;;;;;5063901;28;20100;-78
2021/06/20 05:21:18;;;;;;;11.13;4.38;;;;;;;;;;5061899;28;20037;-78
2021/06/20 05:23:45;;;;;;;12.45;4.15;;;;;;;;;;5056944;28;20033;-78
2021/06/20 05:26:11;;;;;;;11.50;4.40;;;;;;;;;;5056701;28;20804;-78
2021/06/20 05:28:36;;;;;;;8.63;3.28;;;;;;;;;;5056859;28;20037;-78
2021/06/20 05:31:02;;;;;;;12.90;3.92;;;;;;;;;;5058349;28;20025;-78
2021/06/20 05:33:27;;;;;;;10.05;3.00;;;;;;;;;;5073599;28;20112;-78
2021/06/20 05:35:53;;;;;;;12.63;3.70;;;;;;;;;;5064461;28;20024;-78
2021/06/20 05:38:18;;;;;;;14.45;4.53;;;;;;;;;;5058849;28;20048;-78
2021/06/20 05:40:44;;;;;;;11.60;3.72;;;;;;;;;;5061616;28;20033;-78
2021/06/20 05:43:10;;;;;;;9.43;3.60;;;;;;;;;;5055468;28;20051;-78
2021/06/20 05:45:35;;;;;;;10.63;3.80;;;;;;;;;;5072195;28;20229;-78
2021/06/20 05:48:01;;;;;;;11.98;3.80;;;;;;;;;;5068793;28;20458;-78
2021/06/20 05:50:26;;;;;;;17.38;4.90;;;;;;;;;;5061506;28;20096;-78
2021/06/20 05:52:53;;;;;;;8.77;3.28;;;;;;;;;;5061104;28;20169;-78
2021/06/20 05:55:19;;;;;;;9.75;3.20;;;;;;;;;;5067740;28;20025;-78
2021/06/20 05:57:44;;;;;;;15.13;4.05;;;;;;;;;;5056315;28;20037;-78
2021/06/20 06:00:11;;;;;;;9.27;3.50;;;;;;;;;;5051186;28;20112;-78
2021/06/20 06:02:41;;;;;;;15.27;4.68;;;;;;;;;;5050822;28;20082;-78
2021/06/20 06:05:08;;;;;;;11.73;3.95;;;;;;;;;;5048450;28;20037;-78
2021/06/20 06:07:33;;;;;;;14.45;3.85;;;;;;;;;;5048788;28;20419;-78
2021/06/20 06:09:59;;;;;;;13.15;3.78;;;;;;;;;;5057226;28;20037;-77
2021/06/20 06:12:25;;;;;;;10.30;4.35;;;;;;;;;;5063066;28;20029;-77
2021/06/20 06:14:52;;;;;;;13.40;4.40;;;;;;;;;;5063625;28;20079;-77
2021/06/20 06:17:20;;;;;;;12.30;3.70;;;;;;;;;;5062694;28;20044;-77
2021/06/20 06:19:46;;;;;;;14.93;4.53;;;;;;;;;;5054344;28;20093;-77
2021/06/20 06:22:12;;;;;;;13.23;3.60;;;;;;;;;;5044918;28;20060;-77
2021/06/20 06:24:37;;;;;;;15.70;3.30;;;;;;;;;;5050518;28;20037;-78
2021/06/20 06:27:03;;;;;;;8.40;2.85;;;;;;;;;;5048774;28;20041;-77
2021/06/20 06:29:28;;;;;;;8.98;2.83;;;;;;;;;;5059755;28;20032;-78
2021/06/20 06:31:53;;;;;;;12.63;3.38;;;;;;;;;;5049357;28;20033;-78
2021/06/20 06:34:20;;;;;;;14.13;3.47;;;;;;;;;;5049462;28;20056;-78
2021/06/20 06:36:45;;;;;;;11.25;4.00;;;;;;;;;;5050233;28;20018;-78
2021/06/20 06:39:11;;;;;;;17.30;3.55;;;;;;;;;;5058039;28;20116;-78
2021/06/20 06:41:36;;;;;;;14.35;3.95;;;;;;;;;;5067547;28;20108;-78
2021/06/20 06:44:02;;;;;;;9.27;2.95;;;;;;;;;;5067986;28;20033;-78
2021/06/20 06:46:27;;;;;;;10.70;3.13;;;;;;;;;;5066775;28;20037;-78
2021/06/20 06:48:52;;;;;;;11.23;3.42;;;;;;;;;;5068170;28;20041;-78
2021/06/20 06:51:18;;;;;;;14.45;3.38;;;;;;;;;;5055230;28;20052;-79
2021/06/20 06:53:43;;;;;;;11.55;3.38;;;;;;;;;;5055234;28;20037;-79
2021/06/20 06:56:09;;;;;;;9.82;3.15;;;;;;;;;;5047531;28;20052;-79
2021/06/20 06:58:34;;;;;;;16.02;3.47;;;;;;;;;;5053205;28;20041;-79
2021/06/20 07:01:00;;;;;;;16.33;2.90;;;;;;;;;;5057317;28;20036;-79
2021/06/20 07:03:25;;;;;;;15.90;3.83;;;;;;;;;;5048015;28;20084;-79
2021/06/20 07:05:50;;;;;;;12.02;3.10;;;;;;;;;;5048025;28;20033;-78
2021/06/20 07:08:16;;;;;;;14.95;2.90;;;;;;;;;;5045158;28;20049;-80
2021/06/20 07:10:41;;;;;;;11.68;3.08;;;;;;;;;;5061656;28;20036;-79
2021/06/20 07:13:07;;;;;;;10.27;3.30;;;;;;;;;;5088547;28;20035;-79
2021/06/20 07:15:32;;;;;;;11.95;3.28;;;;;;;;;;5072808;28;20024;-81
2021/06/20 07:17:59;;;;;;;11.90;2.95;;;;;;;;;;5064268;28;20029;-78
2021/06/20 07:20:24;;;;;;;12.48;3.30;;;;;;;;;;5049282;28;20065;-77
2021/06/20 07:22:50;;;;;;;11.75;3.03;;;;;;;;;;5042876;28;20077;-77
2021/06/20 07:25:19;;;;;;;13.07;4.05;;;;;;;;;;5034835;28;20038;-76
2021/06/20 07:27:45;;;;;;;9.60;3.15;;;;;;;;;;5037236;28;20101;-78
2021/06/20 07:30:13;;;;;;;12.25;3.15;;;;;;;;;;5046083;28;20025;-76
2021/06/20 07:32:39;;;;;;;18.13;3.00;;;;;;;;;;5043630;28;20037;-77
2021/06/20 07:35:06;;;;;;;11.93;2.80;;;;;;;;;;5045070;28;20077;-77
2021/06/20 07:37:32;;;;;;;12.27;2.75;;;;;;;;;;5046764;28;20123;-79
2021/06/20 07:39:57;;;;;;;9.10;2.50;;;;;;;;;;5052767;28;20052;-78
2021/06/20 07:42:23;;;;;;;12.00;2.78;;;;;;;;;;5048185;28;20080;-78
2021/06/20 07:44:49;;;;;;;10.00;3.15;;;;;;;;;;5046403;28;20072;-78
2021/06/20 07:47:15;;;;;;;10.43;3.40;;;;;;;;;;5041676;28;20441;-78
2021/06/20 07:49:40;;;;;;;8.75;2.80;;;;;;;;;;5045600;28;20116;-77
2021/06/20 07:52:06;;;;;;;10.68;2.75;;;;;;;;;;5046440;28;20443;-77
2021/06/20 07:54:31;;;;;;;10.50;2.25;;;;;;;;;;5036265;28;20383;-77
2021/06/20 07:56:57;;;;;;;8.35;2.55;;;;;;;;;;5037056;28;20037;-77
2021/06/20 07:59:22;;;;;;;10.30;3.05;;;;;;;;;;5043048;28;20083;-77
2021/06/20 08:01:48;;;;;;;12.27;2.95;;;;;;;;;;5042351;28;20041;-77
2021/06/20 08:04:13;;;;;;;9.88;2.63;;;;;;;;;;5035601;28;20075;-76
2021/06/20 08:06:39;;;;;;;6.57;2.38;;;;;;;;;;5041705;28;20052;-77
2021/06/20 08:09:05;;;;;;;9.40;2.45;;;;;;;;;;5054624;28;20032;-77
2021/06/20 08:11:32;;;;;;;9.13;2.55;;;;;;;;;;5055745;28;20052;-78
2021/06/20 08:13:58;;;;;;;8.60;2.33;;;;;;;;;;5047239;28;20141;-80
2021/06/20 08:16:25;;;;;;;8.77;2.40;;;;;;;;;;5038337;28;20025;-82
2021/06/20 08:18:50;;;;;;;8.88;2.70;;;;;;;;;;5050572;28;20036;-79
2021/06/20 08:21:16;;;;;;;6.47;2.55;;;;;;;;;;5048261;28;20056;-79
2021/06/20 08:23:42;;;;;;;8.85;2.45;;;;;;;;;;5042229;28;20029;-79
2021/06/20 08:26:08;;;;;;;10.00;2.88;;;;;;;;;;5048426;28;20036;-79
2021/06/20 08:28:34;;;;;;;10.80;2.47;;;;;;;;;;5044109;28;20038;-79
2021/06/20 08:31:00;;;;;;;11.23;3.42;;;;;;;;;;5044358;28;20495;-81
2021/06/20 08:33:25;;;;;;;13.38;2.55;;;;;;;;;;5050966;28;20120;-78
2021/06/20 08:35:51;;;;;;;6.88;1.80;;;;;;;;;;5042524;28;20116;-78
2021/06/20 08:38:16;;;;;;;6.88;2.28;;;;;;;;;;5048417;28;20111;-77
2021/06/20 08:40:43;;;;;;;5.63;1.98;;;;;;;;;;5044955;28;20030;-80
2021/06/20 08:43:09;;;;;;;10.27;3.22;;;;;;;;;;5035700;28;20029;-80
2021/06/20 08:45:35;;;;;;;11.45;2.97;;;;;;;;;;5041080;28;20403;-78
2021/06/20 08:48:01;;;;;;;13.45;3.30;;;;;;;;;;5049096;28;20041;-78
2021/06/20 08:50:26;;;;;;;8.55;2.20;;;;;;;;;;5053086;28;20044;-77
2021/06/20 08:52:55;;;;;;;5.05;2.08;;;;;;;;;;5057800;28;20033;-80
2021/06/20 08:55:23;;;;;;;7.20;2.60;;;;;;;;;;5057920;28;20036;-80
2021/06/20 08:57:49;;;;;;;7.55;2.17;;;;;;;;;;5056662;28;20037;-79
2021/06/20 09:00:19;;;;;;;7.32;2.55;;;;;;;;;;5057491;28;20119;-82
2021/06/20 09:03:05;;;;;;;6.07;2.13;;;;;;;;;;5057405;28;20055;-80
2021/06/20 09:05:30;;;;;;;6.93;2.60;;;;;;;;;;5056240;28;20041;-77
2021/06/20 09:07:55;;;;;;;9.85;2.63;;;;;;;;;;5053667;28;20119;-77
2021/06/20 09:10:23;;;;;;;9.52;2.20;;;;;;;;;;5052645;28;20082;-77
2021/06/20 09:12:50;;;;;;;7.53;3.55;;;;;;;;;;5053550;28;20036;-77
2021/06/20 09:15:18;;;;;;;7.97;2.15;;;;;;;;;;5051748;28;20037;-77
2021/06/20 09:17:52;;;;;;;5.47;2.30;;;;;;;;;;5056262;28;20033;-77
2021/06/20 09:20:18;;;;;;;6.45;2.15;;;;;;;;;;5056840;28;20036;-80
2021/06/20 09:22:54;;;;;;;5.80;2.72;;;;;;;;;;5054511;28;20029;-80
2021/06/20 09:25:25;;;;;;;11.13;2.08;;;;;;;;;;5055999;28;20033;-79
2021/06/20 09:27:56;;;;;;;4.50;2.00;;;;;;;;;;5054958;28;20032;-77
2021/06/20 09:30:23;;;;;;;7.07;2.25;;;;;;;;;;5054475;28;20108;-79
2021/06/20 09:33:08;;;;;;;9.88;2.50;;;;;;;;;;5052567;28;20127;-85
2021/06/20 09:35:52;;;;;;;7.28;2.30;;;;;;;;;;5038561;28;20097;-79
2021/06/20 09:38:21;;;;;;;7.60;2.38;;;;;;;;;;5039322;28;20037;-81
2021/06/20 09:40:47;;;;;;;5.65;2.25;;;;;;;;;;5052789;28;20499;-81
2021/06/20 09:43:15;;;;;;;7.85;2.53;;;;;;;;;;5037277;28;20042;-79
2021/06/20 09:45:46;;;;;;;12.50;2.15;;;;;;;;;;5035412;28;20503;-77
2021/06/20 09:48:27;;;;;;;7.55;2.28;;;;;;;;;;5040748;28;20040;-77
2021/06/20 09:50:55;;;;;;;7.00;2.42;;;;;;;;;;5042535;28;20052;-77
2021/06/20 09:53:32;;;;;;;8.68;2.60;;;;;;;;;;5032752;28;20052;-77
2021/06/20 09:56:30;;;;;;;8.35;2.58;;;;;;;;;;5032809;28;20033;-76
2021/06/20 09:59:00;;;;;;;14.77;2.33;;;;;;;;;;5037029;28;20042;-81
2021/06/20 10:01:28;;;;;;;10.77;2.85;;;;;;;;;;5037654;28;20029;-79
2021/06/20 10:03:55;;;;;;;6.18;2.33;;;;;;;;;;5039681;28;20384;-79
2021/06/20 10:06:21;;;;;;;10.20;2.50;;;;;;;;;;5054744;28;20033;-80
2021/06/20 10:08:47;;;;;;;15.65;3.40;;;;;;;;;;5058956;28;20051;-81
2021/06/20 10:11:15;;;;;;;8.98;2.45;;;;;;;;;;5057500;28;20182;-83
2021/06/20 10:13:41;;;;;;;8.80;2.45;;;;;;;;;;5057475;28;20028;-79
2021/06/20 10:16:30;;;;;;;6.00;2.13;;;;;;;;;;5058134;28;20494;-80
2021/06/20 10:18:58;;;;;;;9.57;2.55;;;;;;;;;;5060849;28;20068;-79
2021/06/20 10:21:44;;;;;;;12.60;3.17;;;;;;;;;;5064947;28;20036;-80
2021/06/20 10:24:16;;;;;;;5.50;2.65;;;;;;;;;;5061505;28;20041;-80
2021/06/20 10:26:58;;;;;;;7.85;2.50;;;;;;;;;;5061255;28;20132;-81
2021/06/20 10:29:30;;;;;;;10.68;3.15;;;;;;;;;;5062066;28;20127;-82
2021/06/20 10:31:57;;;;;;;6.07;2.28;;;;;;;;;;5048346;28;20029;-81
2021/06/20 10:34:24;;;;;;;8.15;2.30;;;;;;;;;;5041606;28;20041;-81
2021/06/20 10:36:53;;;;;;;7.45;2.45;;;;;;;;;;5041949;28;20025;-79
2021/06/20 10:39:19;;;;;;;10.18;2.30;;;;;;;;;;5040984;28;20064;-81
2021/06/20 10:41:45;;;;;;;6.18;2.45;;;;;;;;;;5057728;28;20033;-80
2021/06/20 10:44:10;;;;;;;8.57;2.25;;;;;;;;;;5060744;28;20103;-79
2021/06/20 10:46:38;;;;;;;5.55;2.10;;;;;;;;;;5058749;28;20086;-80
2021/06/20 10:49:16;;;;;;;10.80;2.72;;;;;;;;;;5058682;28;20514;-79
2021/06/20 10:51:42;;;;;;;7.57;2.15;;;;;;;;;;5060974;28;20537;-79
2021/06/20 10:54:07;;;;;;;6.82;2.30;;;;;;;;;;5060433;28;20037;-80
2021/06/20 10:56:34;;;;;;;10.02;2.28;;;;;;;;;;5059880;28;20033;-79
2021/06/20 10:58:59;;;;;;;8.20;3.05;;;;;;;;;;5060646;28;20111;-80
2021/06/20 11:01:29;;;;;;;5.78;2.33;;;;;;;;;;5058956;28;20130;-79
2021/06/20 11:03:54;;;;;;;5.95;2.13;;;;;;;;;;5057926;28;20044;-81
2021/06/20 11:06:24;;;;;;;9.05;2.30;;;;;;;;;;5056956;28;20041;-80
2021/06/20 11:08:52;;;;;;;6.78;2.10;;;;;;;;;;5058832;28;20142;-80
2021/06/20 11:11:22;;;;;;;5.22;1.90;;;;;;;;;;5058180;28;20028;-80
2021/06/20 11:13:59;;;;;;;7.10;1.95;;;;;;;;;;5058267;28;20029;-80
2021/06/20 11:16:37;;;;;;;8.57;1.92;;;;;;;;;;5057524;28;20044;-80
2021/06/20 11:19:10;;;;;;;7.15;2.25;;;;;;;;;;5058874;28;20689;-79
2021/06/20 11:21:47;;;;;;;2.28;1.35;;;;;;;;;;5054077;28;20479;-76
2021/06/20 11:24:16;;;;;;;6.80;1.85;;;;;;;;;;5053210;28;20033;-76
2021/06/20 11:26:55;;;;;;;4.68;2.20;;;;;;;;;;5036704;28;20029;-77
2021/06/20 11:29:21;;;;;;;3.42;1.45;;;;;;;;;;5053193;28;20509;-77
2021/06/20 11:31:54;;;;;;;3.33;1.30;;;;;;;;;;5036254;28;20029;-77
2021/06/20 11:34:21;;;;;;;3.25;1.50;;;;;;;;;;5053499;28;20025;-77
2021/06/20 11:36:47;;;;;;;3.58;1.52;;;;;;;;;;5054056;28;20065;-77
2021/06/20 11:39:14;;;;;;;8.98;2.20;;;;;;;;;;5054517;28;20091;-76
2021/06/20 11:41:41;;;;;;;3.13;1.40;;;;;;;;;;5052597;28;20033;-77
2021/06/20 11:44:07;;;;;;;4.95;1.67;;;;;;;;;;5054591;28;20068;-77
2021/06/20 11:46:34;;;;;;;5.60;1.60;;;;;;;;;;5054299;28;20433;-76
2021/06/20 11:49:02;;;;;;;3.92;1.60;;;;;;;;;;5051808;28;20505;-77
2021/06/20 11:51:28;;;;;;;3.78;1.60;;;;;;;;;;5053990;28;20116;-77
2021/06/20 11:54:13;;;;;;;2.70;1.38;;;;;;;;;;5054706;28;20040;-78
2021/06/20 11:56:43;;;;;;;3.07;1.10;;;;;;;;;;5053147;28;20044;-77
2021/06/20 11:59:09;;;;;;;5.85;1.40;;;;;;;;;;5053380;28;20291;-77
2021/06/20 12:01:46;;;;;;;6.50;1.30;;;;;;;;;;5054261;28;20033;-77
2021/06/20 12:04:14;;;;;;;9.48;1.73;;;;;;;;;;5052379;28;20120;-77
2021/06/20 12:06:39;;;;;;;6.07;1.50;;;;;;;;;;5054070;28;20502;-76
2021/06/20 12:09:10;;;;;;;4.35;1.20;;;;;;;;;;5053800;28;20075;-76
2021/06/20 12:11:36;;;;;;;5.78;1.60;;;;;;;;;;5053650;28;20074;-77
2021/06/20 12:14:04;;;;;;;8.20;1.30;;;;;;;;;;5054192;28;20033;-77
2021/06/20 12:16:29;;;;;;;4.57;1.58;;;;;;;;;;5051909;28;20127;-77
2021/06/20 12:18:57;;;;;;;6.57;1.40;;;;;;;;;;5052675;28;20108;-76
2021/06/20 12:21:30;;;;;;;3.97;1.25;;;;;;;;;;5054118;28;20418;-77
2021/06/20 12:23:58;;;;;;;11.85;7.40;;;;;;;;;;5050885;28;20480;-75
2021/06/20 12:26:28;;;;;;;4.75;1.60;;;;;;;;;;5042491;28;20033;-76
2021/06/20 12:28:54;;;;;;;1.75;1.20;;;;;;;;;;5043081;28;20087;-76
2021/06/20 12:31:20;;;;;;;2.40;1.27;;;;;;;;;;5040710;28;20041;-76
2021/06/20 12:33:46;;;;;;;5.35;1.42;;;;;;;;;;5041814;28;20112;-76
2021/06/20 12:36:11;;;;;;;4.25;1.20;;;;;;;;;;5042771;28;20463;-76
2021/06/20 12:38:38;;;;;;;2.65;1.35;;;;;;;;;;5041732;28;20041;-76
2021/06/20 12:41:15;;;;;;;3.13;1.40;;;;;;;;;;5041332;28;20028;-76
2021/06/20 12:43:41;;;;;;;2.70;1.10;;;;;;;;;;5041095;28;20036;-76
2021/06/20 12:46:09;;;;;;;5.50;1.48;;;;;;;;;;5041896;28;20041;-76
2021/06/20 12:48:40;;;;;;;4.55;1.40;;;;;;;;;;5041586;28;20040;-76
2021/06/20 12:51:08;;;;;;;4.78;1.40;;;;;;;;;;5039978;28;20064;-76
2021/06/20 12:53:35;;;;;;;2.88;1.63;;;;;;;;;;5042879;28;20028;-76
2021/06/20 12:56:03;;;;;;;2.55;1.40;;;;;;;;;;5042959;28;20484;-76
2021/06/20 12:58:29;;;;;;;3.65;1.95;;;;;;;;;;5041632;28;20399;-76
2021/06/20 13:01:06;;;;;;;3.92;1.60;;;;;;;;;;5042130;28;20037;-76
2021/06/20 13:03:33;;;;;;;4.85;1.63;;;;;;;;;;5041704;28;20029;-76
2021/06/20 13:06:01;;;;;;;3.60;1.58;;;;;;;;;;5042356;28;20039;-76
2021/06/20 13:08:32;;;;;;;6.85;1.42;;;;;;;;;;5043525;28;20040;-76
2021/06/20 13:10:59;;;;;;;2.55;1.30;;;;;;;;;;5042754;28;20033;-76
2021/06/20 13:13:24;;;;;;;4.03;1.23;;;;;;;;;;5042150;28;20479;-77
2021/06/20 13:15:49;;;;;;;4.78;1.58;;;;;;;;;;5041060;28;20069;-76
2021/06/20 13:18:15;;;;;;;2.20;1.23;;;;;;;;;;5041109;28;20055;-76
2021/06/20 13:20:40;;;;;;;1.95;1.10;;;;;;;;;;5042524;28;20036;-75
2021/06/20 13:23:09;;;;;;;2.25;1.10;;;;;;;;;;5041206;28;20033;-76
2021/06/20 13:25:34;;;;;;;3.58;1.60;;;;;;;;;;5040341;28;20029;-76
2021/06/20 13:28:00;;;;;;;2.97;1.58;;;;;;;;;;5045689;28;20556;-76
2021/06/20 13:30:26;;;;;;;6.28;2.10;;;;;;;;;;5051446;28;20437;-77
2021/06/20 13:32:52;;;;;;;2.72;1.65;;;;;;;;;;5052462;28;20033;-76
2021/06/20 13:35:18;;;;;;;2.08;1.30;;;;;;;;;;5051851;28;20048;-76
2021/06/20 13:37:45;;;;;;;5.88;1.48;;;;;;;;;;5052719;28;20138;-77
2021/06/20 13:40:14;;;;;;;2.78;1.33;;;;;;;;;;5052850;28;20056;-76
2021/06/20 13:42:42;;;;;;;6.53;2.60;;;;;;;;;;5051727;28;20040;-76
2021/06/20 13:45:09;;;;;;;3.83;1.48;;;;;;;;;;5049548;28;20041;-75
2021/06/20 13:47:34;;;;;;;4.18;1.88;;;;;;;;;;5040945;28;20032;-75
2021/06/20 13:50:00;;;;;;;2.33;1.45;;;;;;;;;;5041881;28;20501;-75
2021/06/20 13:52:25;;;;;;;6.28;1.50;;;;;;;;;;5042915;28;20391;-75
2021/06/20 13:54:55;;;;;;;2.47;1.33;;;;;;;;;;5046676;28;20522;-75
2021/06/20 13:57:23;;;;;;;3.22;1.13;;;;;;;;;;5047096;28;20147;-76
2021/06/20 13:59:52;;;;;;;3.05;1.45;;;;;;;;;;5046094;28;20029;-75
2021/06/20 14:02:18;;;;;;;4.47;1.23;;;;;;;;;;5045162;28;20034;-75
2021/06/20 14:04:44;;;;;;;2.85;1.20;;;;;;;;;;5045698;28;20033;-75
2021/06/20 14:07:11;;;;;;;3.58;1.60;;;;;;;;;;5046111;28;20463;-75
2021/06/20 14:09:36;;;;;;;3.00;1.45;;;;;;;;;;5043723;28;20479;-76
2021/06/20 14:12:03;;;;;;;5.95;1.38;;;;;;;;;;5047202;28;20025;-76
2021/06/20 14:14:29;;;;;;;1.33;1.20;;;;;;;;;;5045231;28;20045;-76
2021/06/20 14:16:54;;;;;;;2.25;1.20;;;;;;;;;;5046892;28;20532;-76
2021/06/20 14:19:19;;;;;;;4.65;1.20;;;;;;;;;;5044162;28;20048;-75
2021/06/20 14:21:47;;;;;;;4.10;1.58;;;;;;;;;;5045575;28;20055;-76
2021/06/20 14:24:12;;;;;;;2.78;1.10;;;;;;;;;;5045604;28;20112;-76
2021/06/20 14:26:38;;;;;;;3.95;1.20;;;;;;;;;;5044102;28;20104;-76
2021/06/20 14:29:05;;;;;;;1.67;1.25;;;;;;;;;;5044928;28;20063;-76
2021/06/20 14:31:30;;;;;;;3.10;1.35;;;;;;;;;;5046070;28;20399;-76
2021/06/20 14:33:56;;;;;;;3.58;1.23;;;;;;;;;;5044703;28;20040;-76
2021/06/20 14:36:21;;;;;;;2.10;1.00;;;;;;;;;;5044399;28;20017;-76
2021/06/20 14:38:47;;;;;;;4.68;1.30;;;;;;;;;;5045279;28;20041;-76